createdAt,value
2023-04-19T00:01:04.409Z,18.63
2023-04-19T00:03:31.705Z,16.92
2023-04-19T00:05:59.586Z,18.27
2023-04-19T00:08:26.470Z,18.73
2023-04-19T00:10:53.332Z,15.20
2023-04-19T00:13:20.072Z,15.90
2023-04-19T00:15:46.751Z,17.17
2023-04-19T00:18:13.294Z,17.63
2023-04-19T00:20:39.900Z,15.98
2023-04-19T00:23:06.505Z,13.85
2023-04-19T00:25:34.800Z,24.60
2023-04-19T00:28:01.492Z,23.17
2023-04-19T00:30:28.116Z,13.80
2023-04-19T00:32:54.796Z,19.27
2023-04-19T00:35:21.512Z,17.02
2023-04-19T00:37:48.089Z,21.80
2023-04-19T00:40:15.053Z,15.30
2023-04-19T00:42:42.442Z,17.08
2023-04-19T00:45:09.581Z,19.83
2023-04-19T00:47:36.477Z,20.70
2023-04-19T00:50:04.403Z,21.40
2023-04-19T00:52:33.239Z,19.10
2023-04-19T00:55:00.265Z,21.50
2023-04-19T00:57:27.176Z,23.63
2023-04-19T00:59:54.752Z,24.13
2023-04-19T01:02:22.428Z,18.55
2023-04-19T01:04:49.145Z,18.58
2023-04-19T01:07:16.378Z,16.90
2023-04-19T01:09:45.126Z,18.45
2023-04-19T01:12:11.942Z,23.40
2023-04-19T01:14:38.628Z,16.73
2023-04-19T01:17:06.077Z,19.40
2023-04-19T01:19:32.713Z,23.42
2023-04-19T01:21:59.257Z,18.83
2023-04-19T01:24:25.924Z,20.95
2023-04-19T01:26:52.458Z,20.85
2023-04-19T01:29:20.841Z,21.98
2023-04-19T01:31:51.475Z,17.52
2023-04-19T01:34:18.117Z,18.63
2023-04-19T01:36:44.728Z,21.85
2023-04-19T01:39:11.906Z,25.60
2023-04-19T01:41:38.463Z,19.92
2023-04-19T01:44:05.090Z,18.00
2023-04-19T01:46:31.660Z,21.52
2023-04-19T01:48:58.327Z,17.63
2023-04-19T01:51:24.885Z,17.00
2023-04-19T01:53:53.790Z,14.05
2023-04-19T01:56:21.944Z,13.45
2023-04-19T01:58:48.551Z,24.70
2023-04-19T02:01:15.321Z,24.13
2023-04-19T02:03:42.316Z,24.17
2023-04-19T02:06:13.629Z,24.48
2023-04-19T02:08:41.698Z,25.38
2023-04-19T02:11:08.919Z,21.00
2023-04-19T02:13:35.653Z,20.00
2023-04-19T02:16:03.245Z,17.02
2023-04-19T02:18:30.230Z,24.17
2023-04-19T02:20:56.857Z,42.00
2023-04-19T02:23:23.421Z,22.33
2023-04-19T02:25:50.630Z,21.33
2023-04-19T02:28:17.432Z,23.85
2023-04-19T02:30:43.991Z,21.48
2023-04-19T02:33:10.596Z,24.17
2023-04-19T02:35:37.455Z,25.63
2023-04-19T02:38:04.889Z,25.60
2023-04-19T02:40:31.703Z,19.00
2023-04-19T02:42:58.237Z,18.83
2023-04-19T02:45:24.774Z,25.85
2023-04-19T02:47:51.425Z,17.90
2023-04-19T02:50:18.204Z,22.30
2023-04-19T02:52:44.757Z,20.75
2023-04-19T02:55:11.301Z,22.30
2023-04-19T02:57:37.846Z,22.73
2023-04-19T03:00:05.934Z,21.85
2023-04-19T03:02:32.600Z,19.65
2023-04-19T03:04:59.287Z,18.10
2023-04-19T03:07:26.103Z,18.63
2023-04-19T03:09:52.760Z,22.02
2023-04-19T03:12:19.329Z,22.42
2023-04-19T03:14:45.954Z,21.38
2023-04-19T03:17:12.505Z,22.42
2023-04-19T03:19:39.076Z,26.00
2023-04-19T03:22:05.865Z,20.17
2023-04-19T03:24:33.972Z,15.95
2023-04-19T03:27:03.461Z,25.35
2023-04-19T03:29:29.970Z,23.60
2023-04-19T03:31:56.516Z,21.33
2023-04-19T03:34:23.041Z,19.05
2023-04-19T03:36:49.635Z,21.45
2023-04-19T03:39:16.174Z,26.80
2023-04-19T03:41:42.719Z,22.00
2023-04-19T03:44:09.306Z,27.83
2023-04-19T03:46:36.076Z,25.52
2023-04-19T03:49:02.994Z,20.85
2023-04-19T03:51:29.590Z,20.77
2023-04-19T03:53:56.104Z,24.27
2023-04-19T03:56:22.784Z,19.02
2023-04-19T03:58:51.536Z,25.33
2023-04-19T04:01:19.333Z,22.25
2023-04-19T04:03:46.143Z,23.58
2023-04-19T04:06:13.180Z,26.65
2023-04-19T04:08:39.799Z,22.77
2023-04-19T04:11:06.467Z,26.02
2023-04-19T04:13:33.010Z,24.02
2023-04-19T04:15:59.888Z,27.90
2023-04-19T04:18:28.595Z,21.10
2023-04-19T04:20:55.622Z,26.33
2023-04-19T04:23:22.799Z,19.98
2023-04-19T04:25:59.309Z,25.60
2023-04-19T04:28:25.882Z,22.33
2023-04-19T04:30:52.405Z,20.05
2023-04-19T04:33:18.965Z,24.90
2023-04-19T04:35:45.575Z,25.42
2023-04-19T04:38:23.534Z,39.75
2023-04-19T04:40:53.691Z,23.08
2023-04-19T04:43:23.645Z,23.23
2023-04-19T04:45:50.421Z,26.98
2023-04-19T04:48:17.026Z,20.60
2023-04-19T04:50:44.310Z,26.38
2023-04-19T04:53:13.258Z,25.05
2023-04-19T04:55:39.972Z,25.63
2023-04-19T04:58:07.088Z,19.85
2023-04-19T05:00:34.620Z,26.88
2023-04-19T05:03:02.974Z,25.55
2023-04-19T05:05:30.246Z,27.63
2023-04-19T05:07:56.892Z,26.02
2023-04-19T05:10:23.569Z,19.40
2023-04-19T05:12:50.233Z,25.30
2023-04-19T05:15:16.803Z,25.60
2023-04-19T05:17:43.541Z,25.63
2023-04-19T05:20:10.669Z,22.92
2023-04-19T05:22:37.729Z,28.15
2023-04-19T05:25:05.526Z,26.30
2023-04-19T05:27:32.172Z,22.75
2023-04-19T05:29:58.733Z,22.63
2023-04-19T05:32:25.297Z,23.02
2023-04-19T05:34:51.859Z,24.38
2023-04-19T05:37:18.401Z,21.77
2023-04-19T05:39:45.083Z,23.88
2023-04-19T05:42:11.874Z,25.92
2023-04-19T05:44:38.384Z,27.42
2023-04-19T05:47:05.508Z,21.52
2023-04-19T05:49:32.053Z,26.77
2023-04-19T05:51:58.648Z,22.83
2023-04-19T05:54:25.332Z,24.92
2023-04-19T05:56:51.892Z,28.13
2023-04-19T05:59:18.513Z,18.08
2023-04-19T06:01:45.315Z,23.88
2023-04-19T06:04:11.982Z,25.52
2023-04-19T06:06:38.681Z,19.55
2023-04-19T06:09:07.120Z,21.98
2023-04-19T06:11:42.961Z,26.38
2023-04-19T06:14:14.487Z,23.08
2023-04-19T06:16:41.791Z,21.92
2023-04-19T06:19:08.408Z,21.95
2023-04-19T06:21:35.197Z,21.52
2023-04-19T06:24:02.029Z,23.65
2023-04-19T06:26:28.610Z,26.85
2023-04-19T06:28:55.226Z,26.33
2023-04-19T06:31:21.896Z,23.63
2023-04-19T06:33:48.566Z,23.65
2023-04-19T06:36:15.309Z,21.52
2023-04-19T06:38:44.696Z,25.52
2023-04-19T06:41:11.398Z,22.63
2023-04-19T06:43:39.488Z,25.52
2023-04-19T06:46:06.438Z,25.33
2023-04-19T06:48:34.637Z,23.25
2023-04-19T06:51:01.448Z,27.02
2023-04-19T06:53:28.087Z,23.10
2023-04-19T06:56:01.014Z,21.55
2023-04-19T06:58:28.649Z,19.40
2023-04-19T07:00:55.521Z,22.67
2023-04-19T07:03:22.487Z,24.63
2023-04-19T07:05:49.451Z,22.23
2023-04-19T07:08:16.199Z,16.92
2023-04-19T07:10:43.908Z,25.05
2023-04-19T07:13:11.822Z,23.20
2023-04-19T07:15:38.598Z,18.70
2023-04-19T07:18:05.575Z,22.75
2023-04-19T07:20:32.390Z,25.33
2023-04-19T07:22:59.678Z,21.35
2023-04-19T07:25:26.990Z,22.48
2023-04-19T07:27:54.969Z,24.95
2023-04-19T07:30:21.717Z,23.23
2023-04-19T07:32:48.654Z,21.38
2023-04-19T07:35:15.331Z,25.67
2023-04-19T07:37:42.659Z,27.42
2023-04-19T07:40:09.888Z,28.20
2023-04-19T07:42:36.469Z,22.40
2023-04-19T07:45:03.262Z,23.10
2023-04-19T07:47:29.920Z,23.65
2023-04-19T07:49:56.537Z,21.65
2023-04-19T07:52:23.094Z,20.55
2023-04-19T07:54:49.765Z,21.95
2023-04-19T07:57:16.355Z,18.70
2023-04-19T07:59:42.881Z,21.92
2023-04-19T08:02:09.598Z,24.45
2023-04-19T08:04:37.630Z,22.15
2023-04-19T08:07:04.911Z,25.73
2023-04-19T08:09:33.985Z,22.55
2023-04-19T08:12:01.474Z,24.33
2023-04-19T08:14:37.799Z,24.55
2023-04-19T08:17:23.932Z,25.38
2023-04-19T08:19:53.824Z,21.85
2023-04-19T08:22:21.645Z,22.58
2023-04-19T08:24:52.054Z,22.92
2023-04-19T08:27:19.112Z,24.67
2023-04-19T08:29:45.894Z,22.77
2023-04-19T08:32:13.545Z,23.90
2023-04-19T08:34:40.376Z,21.85
2023-04-19T08:37:07.414Z,26.25
2023-04-19T08:39:35.031Z,20.92
2023-04-19T08:42:13.110Z,17.08
2023-04-19T08:45:13.191Z,21.13
2023-04-19T08:47:51.872Z,24.75
2023-04-19T08:50:31.999Z,25.42
2023-04-19T08:53:12.321Z,24.15
2023-04-19T08:56:06.924Z,22.05
2023-04-19T09:01:06.198Z,26.15
2023-04-19T09:03:40.892Z,19.85
2023-04-19T09:06:14.593Z,21.45
2023-04-19T09:08:41.895Z,21.70
2023-04-19T09:11:09.269Z,20.83
2023-04-19T09:13:40.469Z,16.50
2023-04-19T09:16:08.111Z,20.27
2023-04-19T09:19:02.388Z,20.55
2023-04-19T09:21:40.092Z,21.95
2023-04-19T09:24:07.027Z,21.75
2023-04-19T09:26:34.515Z,18.33
2023-04-19T09:29:05.530Z,25.17
2023-04-19T09:31:48.031Z,21.70
2023-04-19T09:34:19.616Z,23.13
2023-04-19T09:36:46.856Z,21.08
2023-04-19T09:39:14.807Z,19.23
2023-04-19T09:41:58.320Z,18.08
2023-04-19T09:46:55.708Z,23.27
2023-04-19T09:49:36.938Z,25.58
2023-04-19T09:52:10.266Z,17.25
2023-04-19T09:54:37.856Z,16.20
2023-04-19T09:57:04.952Z,16.83
2023-04-19T09:59:31.653Z,16.83
2023-04-19T10:02:01.226Z,17.30
2023-04-19T10:04:38.409Z,18.92
2023-04-19T10:14:47.976Z,18.55
2023-04-19T10:17:15.393Z,24.02
2023-04-19T10:19:44.745Z,15.32
2023-04-19T10:22:12.788Z,22.05
2023-04-19T10:24:39.353Z,24.42
2023-04-19T10:32:40.758Z,21.15
2023-04-19T10:38:07.475Z,17.42
2023-04-19T10:41:00.263Z,16.92
2023-04-19T10:43:29.689Z,15.52
2023-04-19T10:46:08.795Z,16.90
2023-04-19T10:48:38.237Z,18.27
2023-04-19T10:53:51.712Z,21.30
2023-04-19T10:56:22.635Z,17.08
2023-04-19T11:07:27.653Z,15.55
2023-04-19T11:09:54.355Z,25.48
2023-04-19T11:12:21.892Z,22.65
2023-04-19T11:14:53.407Z,23.05
2023-04-19T11:17:29.571Z,17.48
2023-04-19T11:19:58.171Z,19.35
2023-04-19T11:22:27.026Z,18.65
2023-04-19T11:24:53.647Z,17.85
2023-04-19T11:27:21.295Z,16.38
2023-04-19T11:29:48.167Z,16.98
2023-04-19T11:32:14.765Z,18.73
2023-04-19T11:34:41.523Z,15.85
2023-04-19T11:37:09.722Z,16.73
2023-04-19T11:39:45.648Z,15.38
2023-04-19T11:42:18.436Z,18.38
2023-04-19T11:44:50.872Z,16.92
2023-04-19T11:47:18.005Z,13.57
2023-04-19T11:49:44.842Z,18.85
2023-04-19T11:52:11.701Z,18.50
2023-04-19T11:54:40.024Z,22.80
2023-04-19T11:57:07.788Z,16.77
2023-04-19T11:59:36.313Z,18.13
2023-04-19T12:02:12.333Z,18.15
2023-04-19T12:04:40.001Z,19.65
2023-04-19T12:07:07.184Z,19.05
2023-04-19T12:09:35.982Z,15.13
2023-04-19T12:12:03.158Z,15.82
2023-04-19T12:14:30.521Z,15.45
2023-04-19T12:19:46.990Z,17.20
2023-04-19T12:22:16.297Z,17.90
2023-04-19T12:24:43.742Z,16.90
2023-04-19T12:27:11.446Z,16.75
2023-04-19T12:29:38.684Z,15.73
2023-04-19T12:32:06.206Z,16.70
2023-04-19T12:34:32.948Z,14.60
2023-04-19T12:36:59.656Z,14.18
2023-04-19T12:39:26.357Z,16.88
2023-04-19T12:41:52.925Z,18.10
2023-04-19T12:44:19.523Z,18.15
2023-04-19T12:46:46.119Z,13.27
2023-04-19T12:49:12.770Z,14.35
2023-04-19T12:51:39.459Z,13.52
2023-04-19T12:54:07.670Z,13.57
2023-04-19T12:56:34.976Z,15.52
2023-04-19T12:59:01.793Z,11.57
2023-04-19T13:01:28.447Z,14.80
2023-04-19T13:03:58.799Z,14.23
2023-04-19T13:06:26.389Z,12.70
2023-04-19T13:08:54.687Z,14.55
2023-04-19T13:11:23.537Z,14.85
2023-04-19T13:13:51.845Z,16.08
2023-04-19T13:16:19.311Z,13.27
2023-04-19T13:18:46.279Z,15.55
2023-04-19T13:21:12.879Z,11.35
2023-04-19T13:23:39.438Z,19.02
2023-04-19T13:26:06.645Z,14.90
2023-04-19T13:28:35.783Z,11.30
2023-04-19T13:31:04.024Z,10.35
2023-04-19T13:33:30.651Z,8.98
2023-04-19T13:35:57.182Z,7.75
2023-04-19T13:38:24.596Z,27.40
2023-04-19T13:40:51.541Z,8.75
2023-04-19T13:43:18.139Z,17.48
2023-04-19T13:45:44.735Z,8.30
2023-04-19T13:48:11.514Z,7.32
2023-04-19T13:50:38.289Z,8.63
2023-04-19T13:53:04.891Z,9.50
2023-04-19T13:55:31.651Z,8.85
2023-04-19T13:57:58.260Z,8.38
2023-04-19T14:00:24.992Z,7.40
2023-04-19T14:02:52.590Z,8.00
2023-04-19T14:05:19.524Z,5.57
2023-04-19T14:07:46.547Z,6.60
2023-04-19T14:10:13.342Z,6.80
2023-04-19T14:12:39.902Z,6.65
2023-04-19T14:15:06.863Z,5.50
2023-04-19T14:17:36.011Z,8.55
2023-04-19T14:20:03.912Z,5.65
2023-04-19T14:22:32.531Z,13.15
2023-04-19T14:24:59.096Z,5.47
2023-04-19T14:27:26.402Z,6.07
2023-04-19T14:29:52.912Z,7.47
2023-04-19T14:32:25.286Z,6.03
2023-04-19T14:34:54.682Z,8.60
2023-04-19T14:37:22.317Z,5.20
2023-04-19T14:39:48.931Z,4.32
2023-04-19T14:42:15.611Z,5.70
2023-04-19T14:44:42.149Z,5.13
2023-04-19T14:47:08.834Z,3.50
2023-04-19T14:49:35.503Z,5.88
2023-04-19T14:52:03.817Z,4.32
2023-04-19T14:54:30.918Z,7.50
2023-04-19T14:56:57.519Z,7.15
2023-04-19T14:59:24.066Z,3.92
2023-04-19T15:01:50.724Z,5.38
2023-04-19T15:04:17.467Z,2.08
2023-04-19T15:06:44.218Z,2.63
2023-04-19T15:09:11.617Z,1.77
2023-04-19T15:11:38.256Z,2.65
2023-04-19T15:14:04.920Z,2.85
2023-04-19T15:16:31.776Z,3.05
2023-04-19T15:18:58.509Z,4.30
2023-04-19T15:21:25.078Z,2.63
2023-04-19T15:23:51.897Z,3.55
2023-04-19T15:26:18.668Z,3.35
2023-04-19T15:28:45.446Z,4.35
2023-04-19T15:31:12.009Z,3.92
2023-04-19T15:33:38.797Z,4.78
2023-04-19T15:36:05.807Z,4.30
2023-04-19T15:38:32.847Z,2.33
2023-04-19T15:41:01.369Z,3.50
2023-04-19T15:43:28.114Z,5.15
2023-04-19T15:45:54.966Z,2.90
2023-04-19T15:48:22.040Z,2.05
2023-04-19T15:50:48.741Z,2.47
2023-04-19T15:53:16.067Z,2.72
2023-04-19T15:55:42.732Z,2.35
2023-04-19T15:58:09.260Z,3.15
2023-04-19T16:00:35.965Z,2.60
2023-04-19T16:03:02.853Z,3.55
2023-04-19T16:05:29.593Z,1.67
2023-04-19T16:08:06.453Z,3.05
2023-04-19T16:10:33.176Z,3.67
2023-04-19T16:13:01.002Z,3.50
2023-04-19T16:15:28.396Z,6.32
2023-04-19T16:17:55.244Z,3.72
2023-04-19T16:20:22.092Z,4.50
2023-04-19T16:22:48.998Z,4.30
2023-04-19T16:25:16.525Z,3.85
2023-04-19T16:27:44.554Z,3.13
2023-04-19T16:30:12.109Z,3.65
2023-04-19T16:32:39.440Z,3.35
2023-04-19T16:35:06.479Z,2.42
2023-04-19T16:37:33.638Z,3.67
2023-04-19T16:40:05.255Z,1.98
2023-04-19T16:42:31.795Z,2.53
2023-04-19T16:44:58.395Z,4.82
2023-04-19T16:47:25.183Z,6.55
2023-04-19T16:49:51.744Z,2.85
2023-04-19T16:52:18.283Z,3.42
2023-04-19T16:54:45.016Z,5.00
2023-04-19T16:57:11.666Z,1.92
2023-04-19T16:59:38.325Z,3.08
2023-04-19T17:02:06.543Z,3.20
2023-04-19T17:04:33.633Z,8.60
2023-04-19T17:07:01.063Z,5.20
2023-04-19T17:09:27.769Z,3.42
2023-04-19T17:11:55.078Z,2.00
2023-04-19T17:14:21.758Z,3.63
2023-04-19T17:16:48.527Z,4.03
2023-04-19T17:19:15.754Z,3.17
2023-04-19T17:21:43.189Z,3.38
2023-04-19T17:24:09.766Z,2.88
2023-04-19T17:26:36.354Z,1.88
2023-04-19T17:29:03.341Z,4.07
2023-04-19T17:31:30.035Z,6.63
2023-04-19T17:33:56.694Z,2.50
2023-04-19T17:36:23.286Z,3.75
2023-04-19T17:38:49.834Z,3.65
2023-04-19T17:41:16.502Z,2.05
2023-04-19T17:43:46.281Z,5.03
2023-04-19T17:46:13.444Z,1.77
2023-04-19T17:48:40.302Z,1.88
2023-04-19T17:51:07.400Z,3.22
2023-04-19T17:53:34.048Z,2.63
2023-04-19T17:56:00.633Z,1.35
2023-04-19T17:58:27.258Z,3.05
2023-04-19T18:00:54.013Z,3.92
2023-04-19T18:03:20.917Z,3.70
2023-04-19T18:05:47.636Z,2.83
2023-04-19T18:08:14.236Z,4.40
2023-04-19T18:10:40.812Z,1.40
2023-04-19T18:13:07.431Z,4.90
2023-04-19T18:15:34.305Z,2.50
2023-04-19T18:18:00.877Z,3.38
2023-04-19T18:20:27.525Z,2.33
2023-04-19T18:22:54.103Z,3.20
2023-04-19T18:25:20.699Z,1.48
2023-04-19T18:27:48.564Z,1.80
2023-04-19T18:30:15.148Z,3.08
2023-04-19T18:32:41.791Z,2.38
2023-04-19T18:35:10.016Z,3.53
2023-04-19T18:37:36.688Z,3.50
2023-04-19T18:40:07.094Z,3.47
2023-04-19T18:42:33.946Z,1.15
2023-04-19T18:45:00.675Z,1.88
2023-04-19T18:47:27.532Z,2.35
2023-04-19T18:50:04.536Z,3.65
2023-04-19T18:52:32.342Z,2.72
2023-04-19T18:54:58.978Z,1.98
2023-04-19T18:57:27.363Z,3.67
2023-04-19T18:59:56.149Z,1.90
2023-04-19T19:02:22.929Z,2.17
2023-04-19T19:04:57.133Z,3.10
2023-04-19T19:07:36.261Z,2.08
2023-04-19T19:10:17.113Z,2.85
2023-04-19T19:12:45.681Z,1.77
2023-04-19T19:15:14.960Z,1.90
2023-04-19T19:17:41.658Z,2.97
2023-04-19T19:20:09.961Z,5.78
2023-04-19T19:22:36.560Z,3.70
2023-04-19T19:25:03.336Z,5.13
2023-04-19T19:27:29.881Z,4.43
2023-04-19T19:29:56.475Z,3.85
2023-04-19T19:32:23.130Z,7.85
2023-04-19T19:34:56.313Z,9.57
2023-04-19T19:37:27.652Z,6.05
2023-04-19T19:39:56.317Z,6.35
2023-04-19T19:42:24.033Z,5.20
2023-04-19T19:44:55.391Z,4.43
2023-04-19T19:47:23.839Z,5.07
2023-04-19T19:50:31.358Z,5.10
2023-04-19T19:52:37.766Z,3.85
2023-04-19T19:55:04.593Z,5.65
2023-04-19T20:02:34.047Z,4.97
2023-04-19T20:05:01.367Z,6.07
2023-04-19T20:07:42.250Z,11.27
2023-04-19T20:10:14.792Z,5.18
2023-04-19T20:12:42.997Z,3.78
2023-04-19T20:15:13.553Z,5.68
2023-04-19T20:17:40.778Z,3.58
2023-04-19T20:20:09.056Z,3.42
2023-04-19T20:22:35.886Z,1.85
2023-04-19T20:25:02.555Z,5.43
2023-04-19T20:27:29.279Z,5.90
2023-04-19T20:29:57.093Z,6.57
2023-04-19T20:32:24.205Z,7.40
2023-04-19T20:34:52.039Z,7.20
2023-04-19T20:37:18.657Z,6.05
2023-04-19T20:39:45.225Z,5.57
2023-04-19T20:42:11.842Z,7.18
2023-04-19T20:44:38.380Z,8.77
2023-04-19T20:47:04.909Z,6.60
2023-04-19T20:49:31.443Z,6.40
2023-04-19T20:51:58.008Z,4.13
2023-04-19T20:54:24.590Z,11.18
2023-04-19T20:56:53.107Z,9.10
2023-04-19T20:59:19.797Z,4.95
2023-04-19T21:01:46.460Z,6.22
2023-04-19T21:04:13.328Z,9.80
2023-04-19T21:06:39.991Z,12.13
2023-04-19T21:09:06.550Z,6.53
2023-04-19T21:11:33.101Z,6.88
2023-04-19T21:13:59.762Z,4.55
2023-04-19T21:16:26.401Z,6.57
2023-04-19T21:18:53.026Z,4.40
2023-04-19T21:21:19.579Z,5.03
2023-04-19T21:23:46.190Z,9.75
2023-04-19T21:26:12.841Z,2.83
2023-04-19T21:28:39.493Z,4.05
2023-04-19T21:31:06.107Z,4.82
2023-04-19T21:33:32.918Z,6.47
2023-04-19T21:35:59.577Z,6.15
2023-04-19T21:38:26.124Z,8.23
2023-04-19T21:40:52.688Z,5.65
2023-04-19T21:43:19.292Z,4.15
2023-04-19T21:45:46.864Z,5.70
2023-04-19T21:48:13.447Z,4.15
2023-04-19T21:50:40.050Z,4.30
2023-04-19T21:53:06.627Z,4.28
2023-04-19T21:55:34.586Z,8.55
2023-04-19T21:58:02.239Z,2.67
2023-04-19T22:00:28.967Z,8.43
2023-04-19T22:02:55.752Z,11.90
2023-04-19T22:05:22.442Z,5.40
2023-04-19T22:07:49.284Z,4.45
2023-04-19T22:10:16.539Z,7.50
2023-04-19T22:12:55.164Z,8.60
2023-04-19T22:15:25.941Z,3.63
2023-04-19T22:17:52.602Z,6.18
2023-04-19T22:20:19.238Z,7.00
2023-04-19T22:22:45.947Z,7.00
2023-04-19T22:25:12.569Z,3.85
2023-04-19T22:27:39.298Z,7.15
2023-04-19T22:30:06.683Z,6.05
2023-04-19T22:32:33.360Z,5.47
2023-04-19T22:34:59.919Z,5.70
2023-04-19T22:37:26.465Z,4.90
2023-04-19T22:39:53.015Z,2.78
2023-04-19T22:42:19.618Z,3.50
2023-04-19T22:44:46.147Z,7.25
2023-04-19T22:47:13.141Z,7.70
2023-04-19T22:49:43.211Z,3.35
2023-04-19T22:54:36.519Z,3.00
2023-04-19T22:57:03.571Z,3.47
2023-04-19T22:59:30.090Z,3.92
2023-04-19T23:01:56.740Z,3.88
2023-04-19T23:04:24.170Z,5.80
2023-04-19T23:06:50.767Z,2.88
2023-04-19T23:09:18.294Z,5.72
2023-04-19T23:11:46.276Z,6.28
2023-04-19T23:14:13.081Z,5.57
2023-04-19T23:16:39.693Z,7.75
2023-04-19T23:19:07.750Z,3.67
2023-04-19T23:21:34.796Z,6.47
2023-04-19T23:24:01.579Z,7.40
2023-04-19T23:26:28.233Z,6.63
2023-04-19T23:28:54.827Z,4.22
2023-04-19T23:31:21.474Z,3.35
2023-04-19T23:33:48.655Z,4.28
2023-04-19T23:36:15.507Z,6.60
2023-04-19T23:38:42.095Z,6.40
2023-04-19T23:41:14.246Z,6.22
2023-04-19T23:43:41.124Z,6.50
2023-04-19T23:46:08.107Z,5.53
2023-04-19T23:48:34.905Z,6.03
2023-04-19T23:51:01.528Z,6.38
2023-04-19T23:53:28.066Z,5.75
2023-04-19T23:55:54.638Z,5.60
2023-04-19T23:58:21.208Z,4.97
